sensor_id;sensor_type;location;lat;lon;timestamp;temperature;humidity
5364;DHT22;2705;41.410;2.160;2023-12-14T00:02:07;12.50;99.90
5364;DHT22;2705;41.410;2.160;2023-12-14T00:04:37;12.50;99.90
5364;DHT22;2705;41.410;2.160;2023-12-14T00:07:06;12.40;99.90
5364;DHT22;2705;41.410;2.160;2023-12-14T00:09:35;12.40;99.90
5364;DHT22;2705;41.410;2.160;2023-12-14T00:12:05;12.40;99.90
5364;DHT22;2705;41.410;2.160;2023-12-14T00:14:34;12.30;99.90
5364;DHT22;2705;41.410;2.160;2023-12-14T00:17:03;12.20;99.90
5364;DHT22;2705;41.410;2.160;2023-12-14T00:19:32;12.20;99.90
5364;DHT22;2705;41.410;2.160;2023-12-14T00:22:03;12.10;99.90
5364;DHT22;2705;41.410;2.160;2023-12-14T00:24:32;12.10;99.90
5364;DHT22;2705;41.410;2.160;2023-12-14T00:27:01;12.10;99.90
5364;DHT22;2705;41.410;2.160;2023-12-14T00:29:30;12.20;99.90
5364;DHT22;2705;41.410;2.160;2023-12-14T00:31:59;12.20;99.90
5364;DHT22;2705;41.410;2.160;2023-12-14T00:34:28;12.10;99.90
5364;DHT22;2705;41.410;2.160;2023-12-14T00:36:58;12.10;99.90
5364;DHT22;2705;41.410;2.160;2023-12-14T00:39:28;12.10;99.90
5364;DHT22;2705;41.410;2.160;2023-12-14T00:41:57;12.10;99.90
5364;DHT22;2705;41.410;2.160;2023-12-14T00:44:26;12.20;99.90
5364;DHT22;2705;41.410;2.160;2023-12-14T00:46:55;12.10;99.90
5364;DHT22;2705;41.410;2.160;2023-12-14T00:49:23;12.00;99.90
5364;DHT22;2705;41.410;2.160;2023-12-14T00:51:52;12.00;99.90
5364;DHT22;2705;41.410;2.160;2023-12-14T00:54:21;12.10;99.90
5364;DHT22;2705;41.410;2.160;2023-12-14T00:56:51;12.00;99.90
5364;DHT22;2705;41.410;2.160;2023-12-14T00:59:20;12.00;99.90
5364;DHT22;2705;41.410;2.160;2023-12-14T01:01:49;12.00;99.90
5364;DHT22;2705;41.410;2.160;2023-12-14T01:04:18;12.00;99.90
5364;DHT22;2705;41.410;2.160;2023-12-14T01:06:47;12.00;99.90
5364;DHT22;2705;41.410;2.160;2023-12-14T01:09:16;11.90;99.90
5364;DHT22;2705;41.410;2.160;2023-12-14T01:11:45;11.90;99.90
5364;DHT22;2705;41.410;2.160;2023-12-14T01:14:16;12.00;99.90
5364;DHT22;2705;41.410;2.160;2023-12-14T01:16:45;12.10;99.90
5364;DHT22;2705;41.410;2.160;2023-12-14T01:19:14;12.00;99.90
5364;DHT22;2705;41.410;2.160;2023-12-14T01:21:43;12.00;99.90
5364;DHT22;2705;41.410;2.160;2023-12-14T01:24:12;12.00;99.90
5364;DHT22;2705;41.410;2.160;2023-12-14T01:26:41;11.90;99.90
5364;DHT22;2705;41.410;2.160;2023-12-14T01:29:10;11.90;99.90
5364;DHT22;2705;41.410;2.160;2023-12-14T01:31:41;11.90;99.90
5364;DHT22;2705;41.410;2.160;2023-12-14T01:34:10;12.00;99.90
5364;DHT22;2705;41.410;2.160;2023-12-14T01:36:40;11.80;99.90
5364;DHT22;2705;41.410;2.160;2023-12-14T01:39:09;11.70;99.90
5364;DHT22;2705;41.410;2.160;2023-12-14T01:41:38;11.90;99.90
5364;DHT22;2705;41.410;2.160;2023-12-14T01:44:07;11.90;99.90
5364;DHT22;2705;41.410;2.160;2023-12-14T01:46:36;11.80;99.90
5364;DHT22;2705;41.410;2.160;2023-12-14T01:49:06;11.80;99.90
5364;DHT22;2705;41.410;2.160;2023-12-14T01:51:35;11.80;99.90
5364;DHT22;2705;41.410;2.160;2023-12-14T01:54:04;11.90;99.90
5364;DHT22;2705;41.410;2.160;2023-12-14T01:56:33;12.00;99.90
5364;DHT22;2705;41.410;2.160;2023-12-14T01:59:02;12.00;99.90
5364;DHT22;2705;41.410;2.160;2023-12-14T02:01:39;12.00;99.90
5364;DHT22;2705;41.410;2.160;2023-12-14T02:04:12;11.80;99.90
5364;DHT22;2705;41.410;2.160;2023-12-14T02:06:42;11.70;99.90
5364;DHT22;2705;41.410;2.160;2023-12-14T02:09:11;11.70;99.90
5364;DHT22;2705;41.410;2.160;2023-12-14T02:11:40;11.70;99.90
5364;DHT22;2705;41.410;2.160;2023-12-14T02:14:10;11.70;99.90
5364;DHT22;2705;41.410;2.160;2023-12-14T02:16:39;11.70;99.90
5364;DHT22;2705;41.410;2.160;2023-12-14T02:19:08;11.60;99.90
5364;DHT22;2705;41.410;2.160;2023-12-14T02:21:38;11.60;99.90
5364;DHT22;2705;41.410;2.160;2023-12-14T02:24:09;11.60;99.90
5364;DHT22;2705;41.410;2.160;2023-12-14T02:26:38;11.50;99.90
5364;DHT22;2705;41.410;2.160;2023-12-14T02:29:06;11.50;99.90
5364;DHT22;2705;41.410;2.160;2023-12-14T02:31:36;11.40;99.90
5364;DHT22;2705;41.410;2.160;2023-12-14T02:34:05;11.60;99.90
5364;DHT22;2705;41.410;2.160;2023-12-14T02:36:34;11.50;99.90
5364;DHT22;2705;41.410;2.160;2023-12-14T02:39:03;11.60;99.90
5364;DHT22;2705;41.410;2.160;2023-12-14T02:41:33;11.60;99.90
5364;DHT22;2705;41.410;2.160;2023-12-14T02:44:02;11.70;99.90
5364;DHT22;2705;41.410;2.160;2023-12-14T02:46:31;11.70;99.90
5364;DHT22;2705;41.410;2.160;2023-12-14T02:49:01;11.70;99.90
5364;DHT22;2705;41.410;2.160;2023-12-14T02:51:31;11.60;99.90
5364;DHT22;2705;41.410;2.160;2023-12-14T02:54:00;11.60;99.90
5364;DHT22;2705;41.410;2.160;2023-12-14T02:56:29;11.70;99.90
5364;DHT22;2705;41.410;2.160;2023-12-14T02:58:59;11.60;99.90
5364;DHT22;2705;41.410;2.160;2023-12-14T03:01:28;11.60;99.90
5364;DHT22;2705;41.410;2.160;2023-12-14T03:03:57;11.60;99.90
5364;DHT22;2705;41.410;2.160;2023-12-14T03:06:26;11.60;99.90
5364;DHT22;2705;41.410;2.160;2023-12-14T03:08:55;11.50;99.90
5364;DHT22;2705;41.410;2.160;2023-12-14T03:11:25;11.50;99.90
5364;DHT22;2705;41.410;2.160;2023-12-14T03:13:54;11.50;99.90
5364;DHT22;2705;41.410;2.160;2023-12-14T03:16:24;11.50;99.90
5364;DHT22;2705;41.410;2.160;2023-12-14T03:18:53;11.40;99.90
5364;DHT22;2705;41.410;2.160;2023-12-14T03:21:24;11.50;99.90
5364;DHT22;2705;41.410;2.160;2023-12-14T03:23:53;11.40;99.90
5364;DHT22;2705;41.410;2.160;2023-12-14T03:26:22;11.40;99.90
5364;DHT22;2705;41.410;2.160;2023-12-14T03:28:51;11.30;99.90
5364;DHT22;2705;41.410;2.160;2023-12-14T03:31:20;11.50;99.90
5364;DHT22;2705;41.410;2.160;2023-12-14T03:33:50;11.50;99.90
5364;DHT22;2705;41.410;2.160;2023-12-14T03:36:19;11.50;99.90
5364;DHT22;2705;41.410;2.160;2023-12-14T03:38:50;11.50;99.90
5364;DHT22;2705;41.410;2.160;2023-12-14T03:41:19;11.40;99.90
5364;DHT22;2705;41.410;2.160;2023-12-14T03:43:48;11.40;99.90
5364;DHT22;2705;41.410;2.160;2023-12-14T03:46:17;11.30;99.90
5364;DHT22;2705;41.410;2.160;2023-12-14T03:48:46;11.30;99.90
5364;DHT22;2705;41.410;2.160;2023-12-14T03:51:19;11.30;99.90
5364;DHT22;2705;41.410;2.160;2023-12-14T03:53:48;11.30;99.90
5364;DHT22;2705;41.410;2.160;2023-12-14T03:56:17;11.30;99.90
5364;DHT22;2705;41.410;2.160;2023-12-14T03:58:47;11.30;99.90
5364;DHT22;2705;41.410;2.160;2023-12-14T04:01:17;11.40;99.90
5364;DHT22;2705;41.410;2.160;2023-12-14T04:03:46;11.30;99.90
5364;DHT22;2705;41.410;2.160;2023-12-14T04:06:15;11.30;99.90
5364;DHT22;2705;41.410;2.160;2023-12-14T04:08:46;11.20;99.90
5364;DHT22;2705;41.410;2.160;2023-12-14T04:11:15;11.30;99.90
5364;DHT22;2705;41.410;2.160;2023-12-14T04:13:44;11.40;99.90
5364;DHT22;2705;41.410;2.160;2023-12-14T04:16:13;11.30;99.90
5364;DHT22;2705;41.410;2.160;2023-12-14T04:18:42;11.10;99.90
5364;DHT22;2705;41.410;2.160;2023-12-14T04:21:11;11.00;99.90
5364;DHT22;2705;41.410;2.160;2023-12-14T04:23:40;11.00;99.90
5364;DHT22;2705;41.410;2.160;2023-12-14T04:26:11;11.10;99.90
5364;DHT22;2705;41.410;2.160;2023-12-14T04:28:41;11.10;99.90
5364;DHT22;2705;41.410;2.160;2023-12-14T04:31:12;11.00;99.90
5364;DHT22;2705;41.410;2.160;2023-12-14T04:33:41;11.00;99.90
5364;DHT22;2705;41.410;2.160;2023-12-14T04:36:10;11.10;99.90
5364;DHT22;2705;41.410;2.160;2023-12-14T04:38:39;11.00;99.90
5364;DHT22;2705;41.410;2.160;2023-12-14T04:41:08;11.00;99.90
5364;DHT22;2705;41.410;2.160;2023-12-14T04:43:39;11.10;99.90
5364;DHT22;2705;41.410;2.160;2023-12-14T04:46:08;11.10;99.90
5364;DHT22;2705;41.410;2.160;2023-12-14T04:48:37;11.10;99.90
5364;DHT22;2705;41.410;2.160;2023-12-14T04:51:11;11.10;99.90
5364;DHT22;2705;41.410;2.160;2023-12-14T04:53:41;11.10;99.90
5364;DHT22;2705;41.410;2.160;2023-12-14T04:56:10;11.10;99.90
5364;DHT22;2705;41.410;2.160;2023-12-14T04:58:42;11.10;99.90
5364;DHT22;2705;41.410;2.160;2023-12-14T05:01:13;11.10;99.90
5364;DHT22;2705;41.410;2.160;2023-12-14T05:03:42;11.20;99.90
5364;DHT22;2705;41.410;2.160;2023-12-14T05:06:12;11.10;99.90
5364;DHT22;2705;41.410;2.160;2023-12-14T05:08:41;11.30;99.90
5364;DHT22;2705;41.410;2.160;2023-12-14T05:11:10;11.30;99.90
5364;DHT22;2705;41.410;2.160;2023-12-14T05:13:40;11.30;99.90
5364;DHT22;2705;41.410;2.160;2023-12-14T05:16:13;11.30;99.90
5364;DHT22;2705;41.410;2.160;2023-12-14T05:18:42;11.30;99.90
5364;DHT22;2705;41.410;2.160;2023-12-14T05:21:16;11.20;99.90
5364;DHT22;2705;41.410;2.160;2023-12-14T05:23:46;11.20;99.90
5364;DHT22;2705;41.410;2.160;2023-12-14T05:26:15;11.40;99.90
5364;DHT22;2705;41.410;2.160;2023-12-14T05:28:46;11.30;99.90
5364;DHT22;2705;41.410;2.160;2023-12-14T05:31:15;11.30;99.90
5364;DHT22;2705;41.410;2.160;2023-12-14T05:33:45;11.20;99.90
5364;DHT22;2705;41.410;2.160;2023-12-14T05:36:14;11.10;99.90
5364;DHT22;2705;41.410;2.160;2023-12-14T05:38:43;11.20;99.90
5364;DHT22;2705;41.410;2.160;2023-12-14T05:41:12;11.20;99.90
5364;DHT22;2705;41.410;2.160;2023-12-14T05:43:42;11.20;99.90
5364;DHT22;2705;41.410;2.160;2023-12-14T05:46:21;11.30;99.90
5364;DHT22;2705;41.410;2.160;2023-12-14T05:48:51;11.30;99.90
5364;DHT22;2705;41.410;2.160;2023-12-14T05:51:27;11.20;99.90
5364;DHT22;2705;41.410;2.160;2023-12-14T05:53:57;11.20;99.90
5364;DHT22;2705;41.410;2.160;2023-12-14T05:56:26;11.30;99.90
5364;DHT22;2705;41.410;2.160;2023-12-14T05:58:55;11.30;99.90
5364;DHT22;2705;41.410;2.160;2023-12-14T06:01:25;11.30;99.90
5364;DHT22;2705;41.410;2.160;2023-12-14T06:03:54;11.30;99.90
5364;DHT22;2705;41.410;2.160;2023-12-14T06:06:24;11.30;99.90
5364;DHT22;2705;41.410;2.160;2023-12-14T06:08:53;11.30;99.90
5364;DHT22;2705;41.410;2.160;2023-12-14T06:11:22;11.30;99.90
5364;DHT22;2705;41.410;2.160;2023-12-14T06:13:51;11.40;99.90
5364;DHT22;2705;41.410;2.160;2023-12-14T06:16:20;11.50;99.90
5364;DHT22;2705;41.410;2.160;2023-12-14T06:18:51;11.40;99.90
5364;DHT22;2705;41.410;2.160;2023-12-14T06:21:20;11.40;99.90
5364;DHT22;2705;41.410;2.160;2023-12-14T06:23:50;11.40;99.90
5364;DHT22;2705;41.410;2.160;2023-12-14T06:26:19;11.30;99.90
5364;DHT22;2705;41.410;2.160;2023-12-14T06:28:47;11.30;99.90
5364;DHT22;2705;41.410;2.160;2023-12-14T06:31:18;11.40;99.90
5364;DHT22;2705;41.410;2.160;2023-12-14T06:33:50;11.30;99.90
5364;DHT22;2705;41.410;2.160;2023-12-14T06:36:19;11.30;99.90
5364;DHT22;2705;41.410;2.160;2023-12-14T06:38:48;11.40;99.90
5364;DHT22;2705;41.410;2.160;2023-12-14T06:41:21;11.40;99.90
5364;DHT22;2705;41.410;2.160;2023-12-14T06:43:51;11.50;99.90
5364;DHT22;2705;41.410;2.160;2023-12-14T06:46:21;11.50;99.90
5364;DHT22;2705;41.410;2.160;2023-12-14T06:48:51;11.40;99.90
5364;DHT22;2705;41.410;2.160;2023-12-14T06:51:22;11.50;99.90
5364;DHT22;2705;41.410;2.160;2023-12-14T06:53:51;11.40;99.90
5364;DHT22;2705;41.410;2.160;2023-12-14T06:56:21;11.50;99.90
5364;DHT22;2705;41.410;2.160;2023-12-14T06:58:51;11.40;99.90
5364;DHT22;2705;41.410;2.160;2023-12-14T07:01:24;11.40;99.90
5364;DHT22;2705;41.410;2.160;2023-12-14T07:03:54;11.40;99.90
5364;DHT22;2705;41.410;2.160;2023-12-14T07:06:24;11.40;99.90
5364;DHT22;2705;41.410;2.160;2023-12-14T07:08:53;11.50;99.90
5364;DHT22;2705;41.410;2.160;2023-12-14T07:11:22;11.40;99.90
5364;DHT22;2705;41.410;2.160;2023-12-14T07:13:50;11.40;99.90
5364;DHT22;2705;41.410;2.160;2023-12-14T07:16:19;11.30;99.90
5364;DHT22;2705;41.410;2.160;2023-12-14T07:18:48;11.50;99.90
5364;DHT22;2705;41.410;2.160;2023-12-14T07:21:19;11.60;99.90
5364;DHT22;2705;41.410;2.160;2023-12-14T07:23:48;11.70;99.90
5364;DHT22;2705;41.410;2.160;2023-12-14T07:26:17;11.60;99.90
5364;DHT22;2705;41.410;2.160;2023-12-14T07:28:46;11.70;99.90
5364;DHT22;2705;41.410;2.160;2023-12-14T07:31:15;11.60;99.90
5364;DHT22;2705;41.410;2.160;2023-12-14T07:33:45;11.70;99.90
5364;DHT22;2705;41.410;2.160;2023-12-14T07:36:14;11.80;99.90
5364;DHT22;2705;41.410;2.160;2023-12-14T07:38:45;11.70;99.90
5364;DHT22;2705;41.410;2.160;2023-12-14T07:41:14;11.70;99.90
5364;DHT22;2705;41.410;2.160;2023-12-14T07:43:43;11.90;99.90
5364;DHT22;2705;41.410;2.160;2023-12-14T07:46:12;11.90;99.90
5364;DHT22;2705;41.410;2.160;2023-12-14T07:48:42;11.90;99.90
5364;DHT22;2705;41.410;2.160;2023-12-14T07:51:11;12.00;99.90
5364;DHT22;2705;41.410;2.160;2023-12-14T07:53:40;12.00;99.90
5364;DHT22;2705;41.410;2.160;2023-12-14T07:56:11;12.00;99.90
5364;DHT22;2705;41.410;2.160;2023-12-14T07:58:40;12.00;99.90
5364;DHT22;2705;41.410;2.160;2023-12-14T08:01:13;12.00;99.90
5364;DHT22;2705;41.410;2.160;2023-12-14T08:03:42;12.10;99.90
5364;DHT22;2705;41.410;2.160;2023-12-14T08:06:12;12.10;99.90
5364;DHT22;2705;41.410;2.160;2023-12-14T08:08:43;12.10;99.90
5364;DHT22;2705;41.410;2.160;2023-12-14T08:11:13;12.00;99.90
5364;DHT22;2705;41.410;2.160;2023-12-14T08:13:42;12.00;99.90
5364;DHT22;2705;41.410;2.160;2023-12-14T08:16:11;12.00;99.90
5364;DHT22;2705;41.410;2.160;2023-12-14T08:18:41;12.00;99.90
5364;DHT22;2705;41.410;2.160;2023-12-14T08:21:10;12.10;99.90
5364;DHT22;2705;41.410;2.160;2023-12-14T08:23:39;12.00;99.90
5364;DHT22;2705;41.410;2.160;2023-12-14T08:26:08;12.00;99.90
5364;DHT22;2705;41.410;2.160;2023-12-14T08:28:42;12.10;99.90
5364;DHT22;2705;41.410;2.160;2023-12-14T08:31:11;12.10;99.90
5364;DHT22;2705;41.410;2.160;2023-12-14T08:33:41;12.20;99.90
5364;DHT22;2705;41.410;2.160;2023-12-14T08:36:16;12.30;99.90
5364;DHT22;2705;41.410;2.160;2023-12-14T08:38:45;12.30;99.90
5364;DHT22;2705;41.410;2.160;2023-12-14T08:41:14;12.30;99.90
5364;DHT22;2705;41.410;2.160;2023-12-14T08:43:45;12.40;99.90
5364;DHT22;2705;41.410;2.160;2023-12-14T08:46:14;12.50;99.90
5364;DHT22;2705;41.410;2.160;2023-12-14T08:48:43;12.60;99.90
5364;DHT22;2705;41.410;2.160;2023-12-14T08:51:12;12.60;99.90
5364;DHT22;2705;41.410;2.160;2023-12-14T08:53:41;12.70;99.90
5364;DHT22;2705;41.410;2.160;2023-12-14T08:56:11;12.70;99.90
5364;DHT22;2705;41.410;2.160;2023-12-14T08:58:40;12.80;99.90
5364;DHT22;2705;41.410;2.160;2023-12-14T09:01:10;12.90;99.90
5364;DHT22;2705;41.410;2.160;2023-12-14T09:03:39;13.00;99.90
5364;DHT22;2705;41.410;2.160;2023-12-14T09:06:09;13.00;99.90
5364;DHT22;2705;41.410;2.160;2023-12-14T09:08:56;13.00;99.90
5364;DHT22;2705;41.410;2.160;2023-12-14T09:11:26;13.10;99.90
5364;DHT22;2705;41.410;2.160;2023-12-14T09:13:55;13.20;99.90
5364;DHT22;2705;41.410;2.160;2023-12-14T09:16:25;13.20;99.90
5364;DHT22;2705;41.410;2.160;2023-12-14T09:18:54;13.20;99.90
5364;DHT22;2705;41.410;2.160;2023-12-14T09:21:23;13.30;99.90
5364;DHT22;2705;41.410;2.160;2023-12-14T09:24:07;13.40;99.90
5364;DHT22;2705;41.410;2.160;2023-12-14T09:26:40;13.60;99.90
5364;DHT22;2705;41.410;2.160;2023-12-14T09:29:09;13.50;99.90
5364;DHT22;2705;41.410;2.160;2023-12-14T09:31:42;13.70;99.90
5364;DHT22;2705;41.410;2.160;2023-12-14T09:34:12;13.70;99.90
5364;DHT22;2705;41.410;2.160;2023-12-14T09:36:41;13.70;99.90
5364;DHT22;2705;41.410;2.160;2023-12-14T09:39:11;13.80;99.90
5364;DHT22;2705;41.410;2.160;2023-12-14T09:41:39;13.70;99.90
5364;DHT22;2705;41.410;2.160;2023-12-14T09:44:09;13.70;99.90
5364;DHT22;2705;41.410;2.160;2023-12-14T09:46:38;13.80;99.90
5364;DHT22;2705;41.410;2.160;2023-12-14T09:49:13;13.70;99.90
5364;DHT22;2705;41.410;2.160;2023-12-14T09:51:43;13.70;99.90
5364;DHT22;2705;41.410;2.160;2023-12-14T09:54:12;13.80;99.90
5364;DHT22;2705;41.410;2.160;2023-12-14T09:56:46;13.80;99.90
5364;DHT22;2705;41.410;2.160;2023-12-14T09:59:15;13.90;99.90
5364;DHT22;2705;41.410;2.160;2023-12-14T10:01:45;14.10;99.90
5364;DHT22;2705;41.410;2.160;2023-12-14T10:04:17;14.20;99.90
5364;DHT22;2705;41.410;2.160;2023-12-14T10:06:47;14.20;99.90
5364;DHT22;2705;41.410;2.160;2023-12-14T10:09:22;14.20;99.40
5364;DHT22;2705;41.410;2.160;2023-12-14T10:12:02;14.30;99.40
5364;DHT22;2705;41.410;2.160;2023-12-14T10:14:33;14.40;99.30
5364;DHT22;2705;41.410;2.160;2023-12-14T10:17:14;14.40;98.90
5364;DHT22;2705;41.410;2.160;2023-12-14T10:19:46;14.50;99.10
5364;DHT22;2705;41.410;2.160;2023-12-14T10:22:16;14.50;99.00
5364;DHT22;2705;41.410;2.160;2023-12-14T10:24:47;14.50;98.90
5364;DHT22;2705;41.410;2.160;2023-12-14T10:27:17;14.60;98.90
5364;DHT22;2705;41.410;2.160;2023-12-14T10:29:46;14.70;98.80
5364;DHT22;2705;41.410;2.160;2023-12-14T10:32:15;14.80;98.10
5364;DHT22;2705;41.410;2.160;2023-12-14T10:34:46;14.70;98.00
5364;DHT22;2705;41.410;2.160;2023-12-14T10:37:15;14.70;97.30
5364;DHT22;2705;41.410;2.160;2023-12-14T10:39:46;14.90;97.00
5364;DHT22;2705;41.410;2.160;2023-12-14T10:42:18;15.00;97.50
5364;DHT22;2705;41.410;2.160;2023-12-14T10:44:51;15.10;97.00
5364;DHT22;2705;41.410;2.160;2023-12-14T10:47:24;15.10;97.00
5364;DHT22;2705;41.410;2.160;2023-12-14T10:49:55;15.10;96.70
5364;DHT22;2705;41.410;2.160;2023-12-14T10:52:26;15.20;97.10
5364;DHT22;2705;41.410;2.160;2023-12-14T10:55:00;15.20;96.40
5364;DHT22;2705;41.410;2.160;2023-12-14T10:57:31;15.30;95.80
5364;DHT22;2705;41.410;2.160;2023-12-14T11:00:01;15.20;96.00
5364;DHT22;2705;41.410;2.160;2023-12-14T11:02:39;15.30;96.40
5364;DHT22;2705;41.410;2.160;2023-12-14T11:05:13;15.30;97.40
5364;DHT22;2705;41.410;2.160;2023-12-14T11:07:48;15.30;97.20
5364;DHT22;2705;41.410;2.160;2023-12-14T11:10:21;15.30;97.60
5364;DHT22;2705;41.410;2.160;2023-12-14T11:12:56;15.40;97.50
5364;DHT22;2705;41.410;2.160;2023-12-14T11:15:29;15.40;97.10
5364;DHT22;2705;41.410;2.160;2023-12-14T11:18:20;15.40;97.60
5364;DHT22;2705;41.410;2.160;2023-12-14T11:20:54;15.40;97.10
5364;DHT22;2705;41.410;2.160;2023-12-14T11:23:31;15.40;96.60
5364;DHT22;2705;41.410;2.160;2023-12-14T11:26:03;15.60;96.80
5364;DHT22;2705;41.410;2.160;2023-12-14T11:28:34;15.60;95.90
5364;DHT22;2705;41.410;2.160;2023-12-14T11:31:04;15.70;96.20
5364;DHT22;2705;41.410;2.160;2023-12-14T11:33:35;15.70;95.80
5364;DHT22;2705;41.410;2.160;2023-12-14T11:36:13;15.80;96.70
5364;DHT22;2705;41.410;2.160;2023-12-14T11:38:42;15.80;95.10
5364;DHT22;2705;41.410;2.160;2023-12-14T11:41:12;15.90;94.90
5364;DHT22;2705;41.410;2.160;2023-12-14T11:43:42;15.90;94.50
5364;DHT22;2705;41.410;2.160;2023-12-14T11:46:13;15.90;94.20
5364;DHT22;2705;41.410;2.160;2023-12-14T11:48:44;16.00;94.10
5364;DHT22;2705;41.410;2.160;2023-12-14T11:51:15;16.00;93.80
5364;DHT22;2705;41.410;2.160;2023-12-14T11:53:45;16.00;94.00
5364;DHT22;2705;41.410;2.160;2023-12-14T11:56:17;16.10;93.80
5364;DHT22;2705;41.410;2.160;2023-12-14T11:58:46;16.00;93.30
5364;DHT22;2705;41.410;2.160;2023-12-14T12:01:17;16.10;92.80
5364;DHT22;2705;41.410;2.160;2023-12-14T12:03:48;16.20;92.20
5364;DHT22;2705;41.410;2.160;2023-12-14T12:06:23;16.10;92.60
5364;DHT22;2705;41.410;2.160;2023-12-14T12:08:53;16.20;91.00
5364;DHT22;2705;41.410;2.160;2023-12-14T12:11:24;16.30;91.50
5364;DHT22;2705;41.410;2.160;2023-12-14T12:13:56;16.40;91.20
5364;DHT22;2705;41.410;2.160;2023-12-14T12:16:27;16.40;90.40
5364;DHT22;2705;41.410;2.160;2023-12-14T12:18:57;16.50;90.00
5364;DHT22;2705;41.410;2.160;2023-12-14T12:21:27;16.50;90.30
5364;DHT22;2705;41.410;2.160;2023-12-14T12:23:56;16.60;89.80
5364;DHT22;2705;41.410;2.160;2023-12-14T12:26:25;16.60;88.60
5364;DHT22;2705;41.410;2.160;2023-12-14T12:28:54;16.60;88.50
5364;DHT22;2705;41.410;2.160;2023-12-14T12:31:24;16.60;86.80
5364;DHT22;2705;41.410;2.160;2023-12-14T12:33:53;16.70;85.90
5364;DHT22;2705;41.410;2.160;2023-12-14T12:36:22;16.70;88.40
5364;DHT22;2705;41.410;2.160;2023-12-14T12:38:52;16.70;89.20
5364;DHT22;2705;41.410;2.160;2023-12-14T12:41:21;16.80;89.50
5364;DHT22;2705;41.410;2.160;2023-12-14T12:43:51;16.80;87.90
5364;DHT22;2705;41.410;2.160;2023-12-14T12:46:20;16.90;88.50
5364;DHT22;2705;41.410;2.160;2023-12-14T12:48:49;16.90;85.90
5364;DHT22;2705;41.410;2.160;2023-12-14T12:51:19;16.90;86.70
5364;DHT22;2705;41.410;2.160;2023-12-14T12:53:49;16.90;84.80
5364;DHT22;2705;41.410;2.160;2023-12-14T12:56:22;16.90;85.60
5364;DHT22;2705;41.410;2.160;2023-12-14T12:58:52;16.90;86.30
5364;DHT22;2705;41.410;2.160;2023-12-14T13:01:21;17.00;85.10
5364;DHT22;2705;41.410;2.160;2023-12-14T13:03:56;17.00;85.80
5364;DHT22;2705;41.410;2.160;2023-12-14T13:06:26;17.00;83.30
5364;DHT22;2705;41.410;2.160;2023-12-14T13:08:55;17.00;86.00
5364;DHT22;2705;41.410;2.160;2023-12-14T13:11:26;17.10;85.20
5364;DHT22;2705;41.410;2.160;2023-12-14T13:13:57;17.10;85.20
5364;DHT22;2705;41.410;2.160;2023-12-14T13:16:28;17.10;85.70
5364;DHT22;2705;41.410;2.160;2023-12-14T13:18:57;17.20;85.50
5364;DHT22;2705;41.410;2.160;2023-12-14T13:21:26;17.20;87.10
5364;DHT22;2705;41.410;2.160;2023-12-14T13:23:56;17.10;87.20
5364;DHT22;2705;41.410;2.160;2023-12-14T13:26:27;17.20;87.10
5364;DHT22;2705;41.410;2.160;2023-12-14T13:28:56;17.20;86.40
5364;DHT22;2705;41.410;2.160;2023-12-14T13:31:25;17.20;86.70
5364;DHT22;2705;41.410;2.160;2023-12-14T13:33:54;17.20;87.30
5364;DHT22;2705;41.410;2.160;2023-12-14T13:36:23;17.20;89.80
5364;DHT22;2705;41.410;2.160;2023-12-14T13:38:52;17.20;90.20
5364;DHT22;2705;41.410;2.160;2023-12-14T13:41:21;17.20;90.60
5364;DHT22;2705;41.410;2.160;2023-12-14T13:43:52;17.20;90.60
5364;DHT22;2705;41.410;2.160;2023-12-14T13:46:21;17.20;90.90
5364;DHT22;2705;41.410;2.160;2023-12-14T13:48:51;17.10;90.60
5364;DHT22;2705;41.410;2.160;2023-12-14T13:51:21;17.10;90.70
5364;DHT22;2705;41.410;2.160;2023-12-14T13:53:50;17.10;90.90
5364;DHT22;2705;41.410;2.160;2023-12-14T13:56:19;17.20;90.70
5364;DHT22;2705;41.410;2.160;2023-12-14T13:58:48;17.20;90.90
5364;DHT22;2705;41.410;2.160;2023-12-14T14:01:19;17.20;90.50
5364;DHT22;2705;41.410;2.160;2023-12-14T14:03:49;17.30;90.40
5364;DHT22;2705;41.410;2.160;2023-12-14T14:06:18;17.30;90.30
5364;DHT22;2705;41.410;2.160;2023-12-14T14:08:48;17.30;89.30
5364;DHT22;2705;41.410;2.160;2023-12-14T14:11:17;17.30;89.30
5364;DHT22;2705;41.410;2.160;2023-12-14T14:13:47;17.40;86.90
5364;DHT22;2705;41.410;2.160;2023-12-14T14:16:16;17.40;85.90
5364;DHT22;2705;41.410;2.160;2023-12-14T14:18:49;17.40;84.20
5364;DHT22;2705;41.410;2.160;2023-12-14T14:21:18;17.40;83.70
5364;DHT22;2705;41.410;2.160;2023-12-14T14:23:47;17.40;82.10
5364;DHT22;2705;41.410;2.160;2023-12-14T14:26:16;17.40;81.30
5364;DHT22;2705;41.410;2.160;2023-12-14T14:28:45;17.50;89.40
5364;DHT22;2705;41.410;2.160;2023-12-14T14:31:14;17.30;96.30
5364;DHT22;2705;41.410;2.160;2023-12-14T14:33:43;17.10;98.20
5364;DHT22;2705;41.410;2.160;2023-12-14T14:36:16;16.90;99.90
5364;DHT22;2705;41.410;2.160;2023-12-14T14:38:46;16.90;99.90
5364;DHT22;2705;41.410;2.160;2023-12-14T14:41:14;16.80;99.90
5364;DHT22;2705;41.410;2.160;2023-12-14T14:43:43;16.70;99.90
5364;DHT22;2705;41.410;2.160;2023-12-14T14:46:12;16.60;99.90
5364;DHT22;2705;41.410;2.160;2023-12-14T14:48:41;16.50;99.90
5364;DHT22;2705;41.410;2.160;2023-12-14T14:51:10;16.40;99.90
5364;DHT22;2705;41.410;2.160;2023-12-14T14:53:40;16.20;99.90
5364;DHT22;2705;41.410;2.160;2023-12-14T14:56:10;16.00;99.90
5364;DHT22;2705;41.410;2.160;2023-12-14T14:58:39;15.70;99.90
5364;DHT22;2705;41.410;2.160;2023-12-14T15:01:09;15.80;99.90
5364;DHT22;2705;41.410;2.160;2023-12-14T15:03:37;15.90;99.90
5364;DHT22;2705;41.410;2.160;2023-12-14T15:06:07;16.00;99.90
5364;DHT22;2705;41.410;2.160;2023-12-14T15:08:35;16.10;99.90
5364;DHT22;2705;41.410;2.160;2023-12-14T15:11:06;15.90;99.90
5364;DHT22;2705;41.410;2.160;2023-12-14T15:13:37;15.70;99.90
5364;DHT22;2705;41.410;2.160;2023-12-14T15:16:07;15.90;99.90
5364;DHT22;2705;41.410;2.160;2023-12-14T15:18:35;15.90;99.90
5364;DHT22;2705;41.410;2.160;2023-12-14T15:21:10;15.70;99.90
5364;DHT22;2705;41.410;2.160;2023-12-14T15:23:42;15.60;99.90
5364;DHT22;2705;41.410;2.160;2023-12-14T15:26:15;15.50;99.90
5364;DHT22;2705;41.410;2.160;2023-12-14T15:28:44;15.20;99.90
5364;DHT22;2705;41.410;2.160;2023-12-14T15:31:13;15.40;99.90
5364;DHT22;2705;41.410;2.160;2023-12-14T15:33:41;15.40;99.90
5364;DHT22;2705;41.410;2.160;2023-12-14T15:36:10;15.30;99.90
5364;DHT22;2705;41.410;2.160;2023-12-14T15:38:39;15.40;99.90
5364;DHT22;2705;41.410;2.160;2023-12-14T15:41:12;15.20;99.90
5364;DHT22;2705;41.410;2.160;2023-12-14T15:43:42;15.20;99.90
5364;DHT22;2705;41.410;2.160;2023-12-14T15:46:11;15.20;99.90
5364;DHT22;2705;41.410;2.160;2023-12-14T15:48:40;15.20;99.90
5364;DHT22;2705;41.410;2.160;2023-12-14T15:51:11;15.10;99.90
5364;DHT22;2705;41.410;2.160;2023-12-14T15:53:40;15.00;99.90
5364;DHT22;2705;41.410;2.160;2023-12-14T15:56:09;14.90;99.90
5364;DHT22;2705;41.410;2.160;2023-12-14T15:58:37;14.90;99.90
5364;DHT22;2705;41.410;2.160;2023-12-14T16:01:10;15.00;99.90
5364;DHT22;2705;41.410;2.160;2023-12-14T16:03:40;15.00;99.90
5364;DHT22;2705;41.410;2.160;2023-12-14T16:06:09;15.10;99.90
5364;DHT22;2705;41.410;2.160;2023-12-14T16:08:38;15.10;99.90
5364;DHT22;2705;41.410;2.160;2023-12-14T16:11:06;15.00;99.90
5364;DHT22;2705;41.410;2.160;2023-12-14T16:13:35;15.10;99.90
5364;DHT22;2705;41.410;2.160;2023-12-14T16:16:04;14.90;99.90
5364;DHT22;2705;41.410;2.160;2023-12-14T16:18:34;15.00;99.90
5364;DHT22;2705;41.410;2.160;2023-12-14T16:21:03;15.10;99.90